^^
Meteo Knjazevac Station Historical Data
Daily Summary for September 17, 2021 Units:  Both    English   Metric
Daily Weekly Monthly Yearly Custom
  High: Low: Average:
Temperature: 62.6 °F /  17 °C 52.2 °F /  11.2 °C 57.2 °F /  14 °C
Dew Point: 58.8 °F /  14.9 °C 50 °F /  10 °C 54.4 °F /  12.4 °C
Humidity: 96% 83% 90%
Wind Speed: 5mph /  8km/h - 1.5mph /  2.4km/h
Wind Gust: 8mph /  12.9km/h - -
Wind- - SSW
Pressure: 29.88 in /  1011.7 hPa 29.82 in /  1009.7 hPa -
Precipitation: 0.04 in /  1.02 mm    
Historical Graphs
 
 
Tabular Data for September 17, 2021
Time Temperature Dew Point Pressure Wind Wind Speed Wind Gust Humidity Rainfall Rate (Hourly) solar Conditions
00:00 57 °F /  13.9 °C 54.4 °F /  12.4 °C 29.88in /  1011.7hPa NW 1mph /  1.6km/h 2mph /  3.2km/h 91% 0.00in /  0mm 0 W/m2
00:10 56.8 °F /  13.8 °C 54.5 °F /  12.5 °C 29.88in /  1011.7hPa Calm   2mph /  3.2km/h 92% 0.00in /  0mm 0 W/m2
00:20 56.7 °F /  13.7 °C 54.1 °F /  12.3 °C 29.88in /  1011.7hPa NNE 1mph /  1.6km/h 3mph /  4.8km/h 91% 0.00in /  0mm 0 W/m2
00:30 56.5 °F /  13.6 °C 53.9 °F /  12.2 °C 29.88in /  1011.7hPa Calm   3mph /  4.8km/h 91% 0.00in /  0mm 0 W/m2
00:40 56.1 °F /  13.4 °C 53.6 °F /  12 °C 29.88in /  1011.7hPa Calm   2mph /  3.2km/h 91% 0.00in /  0mm 0 W/m2
00:50 55.9 °F /  13.3 °C 53.9 °F /  12.2 °C 29.88in /  1011.7hPa NNW 1mph /  1.6km/h 2mph /  3.2km/h 93% 0.00in /  0mm 0 W/m2
01:00 55.8 °F /  13.2 °C 53.8 °F /  12.1 °C 29.87in /  1011.4hPa Calm   2mph /  3.2km/h 93% 0.00in /  0mm 0 W/m2
01:10 55.6 °F /  13.1 °C 53.9 °F /  12.2 °C 29.87in /  1011.4hPa Calm   2mph /  3.2km/h 94% 0.00in /  0mm 0 W/m2
01:20 55.8 °F /  13.2 °C 53.8 °F /  12.1 °C 29.87in /  1011.4hPa SE 3mph /  4.8km/h 6mph /  9.7km/h 93% 0.00in /  0mm 0 W/m2
01:30 55.8 °F /  13.2 °C 53.8 °F /  12.1 °C 29.86in /  1011.1hPa South 1mph /  1.6km/h 5mph /  8km/h 93% 0.00in /  0mm 0 W/m2
01:40 55.4 °F /  13 °C 53.4 °F /  11.9 °C 29.86in /  1011.1hPa SW 2mph /  3.2km/h 6mph /  9.7km/h 93% 0.00in /  0mm 0 W/m2
01:50 55.4 °F /  13 °C 53.4 °F /  11.9 °C 29.86in /  1011.1hPa Calm   5mph /  8km/h 93% 0.00in /  0mm 0 W/m2
02:00 55.4 °F /  13 °C 53.4 °F /  11.9 °C 29.86in /  1011.1hPa Calm   2mph /  3.2km/h 93% 0.00in /  0mm 0 W/m2
02:10 55.6 °F /  13.1 °C 53.6 °F /  12 °C 29.85in /  1010.7hPa ENE 1mph /  1.6km/h 3mph /  4.8km/h 93% 0.00in /  0mm 0 W/m2
02:20 55.8 °F /  13.2 °C 53.2 °F /  11.8 °C 29.86in /  1011.1hPa SE 2mph /  3.2km/h 5mph /  8km/h 91% 0.00in /  0mm 0 W/m2
02:30 55.8 °F /  13.2 °C 53.2 °F /  11.8 °C 29.85in /  1010.7hPa South 1mph /  1.6km/h 5mph /  8km/h 91% 0.00in /  0mm 0 W/m2
02:40 55.6 °F /  13.1 °C 53 °F /  11.7 °C 29.85in /  1010.7hPa Calm   5mph /  8km/h 91% 0.00in /  0mm 0 W/m2
02:50 55.6 °F /  13.1 °C 53 °F /  11.7 °C 29.86in /  1011.1hPa ENE 1mph /  1.6km/h 4mph /  6.4km/h 91% 0.00in /  0mm 0 W/m2
03:00 55.4 °F /  13 °C 52.8 °F /  11.6 °C 29.85in /  1010.7hPa Calm   5mph /  8km/h 91% 0.00in /  0mm 0 W/m2
03:10 55.2 °F /  12.9 °C 52.6 °F /  11.4 °C 29.85in /  1010.7hPa Calm   3mph /  4.8km/h 91% 0.00in /  0mm 0 W/m2
03:20 55 °F /  12.8 °C 52.5 °F /  11.4 °C 29.85in /  1010.7hPa East 1mph /  1.6km/h 4mph /  6.4km/h 91% 0.00in /  0mm 0 W/m2
03:30 54.9 °F /  12.7 °C 52.3 °F /  11.3 °C 29.85in /  1010.7hPa SE 2mph /  3.2km/h 8mph /  12.9km/h 91% 0.00in /  0mm 0 W/m2
03:40 54.9 °F /  12.7 °C 52.3 °F /  11.3 °C 29.85in /  1010.7hPa SSE 3mph /  4.8km/h 7mph /  11.3km/h 91% 0.00in /  0mm 0 W/m2
03:50 54.9 °F /  12.7 °C 52.3 °F /  11.3 °C 29.85in /  1010.7hPa SE 3mph /  4.8km/h 8mph /  12.9km/h 91% 0.00in /  0mm 0 W/m2
04:00 54.7 °F /  12.6 °C 52.1 °F /  11.2 °C 29.85in /  1010.7hPa SE 1mph /  1.6km/h 6mph /  9.7km/h 91% 0.00in /  0mm 0 W/m2
04:10 54.5 °F /  12.5 °C 51.9 °F /  11.1 °C 29.85in /  1010.7hPa ESE 3mph /  4.8km/h 6mph /  9.7km/h 91% 0.00in /  0mm 0 W/m2
04:20 54.3 °F /  12.4 °C 51.7 °F /  10.9 °C 29.84in /  1010.4hPa ESE 2mph /  3.2km/h 8mph /  12.9km/h 91% 0.00in /  0mm 0 W/m2
04:30 54.1 °F /  12.3 °C 51.6 °F /  10.9 °C 29.84in /  1010.4hPa SSE 3mph /  4.8km/h 8mph /  12.9km/h 91% 0.00in /  0mm 0 W/m2
04:40 54 °F /  12.2 °C 51.4 °F /  10.8 °C 29.85in /  1010.7hPa NE 2mph /  3.2km/h 4mph /  6.4km/h 91% 0.00in /  0mm 0 W/m2
04:50 53.6 °F /  12 °C 51 °F /  10.6 °C 29.84in /  1010.4hPa ESE 1mph /  1.6km/h 5mph /  8km/h 91% 0.00in /  0mm 0 W/m2
05:00 53.4 °F /  11.9 °C 50.9 °F /  10.5 °C 29.84in /  1010.4hPa NNW 1mph /  1.6km/h 2mph /  3.2km/h 91% 0.00in /  0mm 0 W/m2
05:10 53.4 °F /  11.9 °C 51.4 °F /  10.8 °C 29.84in /  1010.4hPa East 1mph /  1.6km/h 3mph /  4.8km/h 93% 0.00in /  0mm 5 W/m2
05:20 52.9 °F /  11.6 °C 50.3 °F /  10.2 °C 29.85in /  1010.7hPa Calm   3mph /  4.8km/h 91% 0.00in /  0mm 13 W/m2
05:30 52.5 °F /  11.4 °C 50 °F /  10 °C 29.85in /  1010.7hPa NW 1mph /  1.6km/h 3mph /  4.8km/h 91% 0.00in /  0mm 31 W/m2
05:40 52.3 °F /  11.3 °C 50.7 °F /  10.4 °C 29.85in /  1010.7hPa Calm   4mph /  6.4km/h 94% 0.00in /  0mm 46 W/m2
05:50 52.3 °F /  11.3 °C 50.7 °F /  10.4 °C 29.85in /  1010.7hPa Calm   3mph /  4.8km/h 94% 0.00in /  0mm 54 W/m2
06:00 52.2 °F /  11.2 °C 50.5 °F /  10.3 °C 29.85in /  1010.7hPa West 1mph /  1.6km/h 3mph /  4.8km/h 94% 0.00in /  0mm 56 W/m2
06:10 52.3 °F /  11.3 °C 51 °F /  10.6 °C 29.84in /  1010.4hPa Calm   2mph /  3.2km/h 95% 0.00in /  0mm 78 W/m2
06:20 52.9 °F /  11.6 °C 51.8 °F /  11 °C 29.84in /  1010.4hPa Calm   2mph /  3.2km/h 96% 0.00in /  0mm 118 W/m2
06:30 53.4 °F /  11.9 °C 52.3 °F /  11.3 °C 29.84in /  1010.4hPa NNE 1mph /  1.6km/h 4mph /  6.4km/h 96% 0.00in /  0mm 120 W/m2
06:40 54 °F /  12.2 °C 52.8 °F /  11.6 °C 29.84in /  1010.4hPa North 1mph /  1.6km/h 3mph /  4.8km/h 96% 0.00in /  0mm 193 W/m2
06:50 55 °F /  12.8 °C 53.6 °F /  12 °C 29.85in /  1010.7hPa South 1mph /  1.6km/h 5mph /  8km/h 95% 0.00in /  0mm 196 W/m2
07:00 55.6 °F /  13.1 °C 53.9 °F /  12.2 °C 29.85in /  1010.7hPa West 2mph /  3.2km/h 5mph /  8km/h 94% 0.00in /  0mm 112 W/m2
07:10 56.3 °F /  13.5 °C 54.3 °F /  12.4 °C 29.85in /  1010.7hPa SE 3mph /  4.8km/h 6mph /  9.7km/h 93% 0.00in /  0mm 92 W/m2
07:20 56.8 °F /  13.8 °C 54.2 °F /  12.3 °C 29.85in /  1010.7hPa SE 2mph /  3.2km/h 6mph /  9.7km/h 91% 0.00in /  0mm 98 W/m2
07:30 56.8 °F /  13.8 °C 54.8 °F /  12.7 °C 29.85in /  1010.7hPa SSW 1mph /  1.6km/h 4mph /  6.4km/h 93% 0.00in /  0mm 110 W/m2
07:40 57.2 °F /  14 °C 55.5 °F /  13.1 °C 29.85in /  1010.7hPa SW 1mph /  1.6km/h 3mph /  4.8km/h 94% 0.00in /  0mm 143 W/m2
07:50 57.6 °F /  14.2 °C 55.8 °F /  13.2 °C 29.84in /  1010.4hPa WSW 1mph /  1.6km/h 2mph /  3.2km/h 94% 0.00in /  0mm 139 W/m2
08:00 57.7 °F /  14.3 °C 55.7 °F /  13.2 °C 29.84in /  1010.4hPa WNW 1mph /  1.6km/h 2mph /  3.2km/h 93% 0.00in /  0mm 100 W/m2
08:10 58.1 °F /  14.5 °C 56.1 °F /  13.4 °C 29.84in /  1010.4hPa WSW 1mph /  1.6km/h 2mph /  3.2km/h 93% 0.00in /  0mm 116 W/m2
08:20 58.3 °F /  14.6 °C 56.3 °F /  13.5 °C 29.84in /  1010.4hPa West 1mph /  1.6km/h 2mph /  3.2km/h 93% 0.00in /  0mm 218 W/m2
08:30 58.8 °F /  14.9 °C 56.2 °F /  13.4 °C 29.84in /  1010.4hPa Calm   3mph /  4.8km/h 91% 0.00in /  0mm 184 W/m2
08:40 59.2 °F /  15.1 °C 56.6 °F /  13.7 °C 29.84in /  1010.4hPa West 1mph /  1.6km/h 2mph /  3.2km/h 91% 0.00in /  0mm 176 W/m2
08:50 59.7 °F /  15.4 °C 57.1 °F /  13.9 °C 29.84in /  1010.4hPa WSW 1mph /  1.6km/h 2mph /  3.2km/h 91% 0.00in /  0mm 210 W/m2
09:00 60.3 °F /  15.7 °C 58.2 °F /  14.6 °C 29.85in /  1010.7hPa Calm   2mph /  3.2km/h 93% 0.00in /  0mm 223 W/m2
09:10 60.6 °F /  15.9 °C 57.7 °F /  14.3 °C 29.85in /  1010.7hPa West 1mph /  1.6km/h 5mph /  8km/h 90% 0.00in /  0mm 150 W/m2
09:30 60.4 °F /  15.8 °C 55.6 °F /  13.1 °C 29.85in /  1010.7hPa SW 5mph /  8km/h 8mph /  12.9km/h 84% 0.00in /  0mm 165 W/m2
09:40 60.4 °F /  15.8 °C 55.9 °F /  13.3 °C 29.85in /  1010.7hPa SW 3mph /  4.8km/h 8mph /  12.9km/h 85% 0.00in /  0mm 248 W/m2
09:50 60.6 °F /  15.9 °C 56.1 °F /  13.4 °C 29.84in /  1010.4hPa SSW 3mph /  4.8km/h 7mph /  11.3km/h 85% 0.00in /  0mm 170 W/m2
10:00 60.4 °F /  15.8 °C 55.9 °F /  13.3 °C 29.84in /  1010.4hPa SW 5mph /  8km/h 8mph /  12.9km/h 85% 0.00in /  0mm 109 W/m2
10:10 60.4 °F /  15.8 °C 55.9 °F /  13.3 °C 29.84in /  1010.4hPa SW 5mph /  8km/h 7mph /  11.3km/h 85% 0.00in /  0mm 90 W/m2
10:20 60.3 °F /  15.7 °C 55.7 °F /  13.2 °C 29.84in /  1010.4hPa SW 2mph /  3.2km/h 6mph /  9.7km/h 85% 0.00in /  0mm 111 W/m2
10:30 60.3 °F /  15.7 °C 56.1 °F /  13.4 °C 29.83in /  1010hPa SW 3mph /  4.8km/h 6mph /  9.7km/h 86% 0.00in /  0mm 196 W/m2
10:40 60.4 °F /  15.8 °C 56.9 °F /  13.8 °C 29.83in /  1010hPa WSW 2mph /  3.2km/h 5mph /  8km/h 88% 0.00in /  0mm 227 W/m2
10:50 61 °F /  16.1 °C 57.4 °F /  14.1 °C 29.83in /  1010hPa SW 2mph /  3.2km/h 4mph /  6.4km/h 88% 0.00in /  0mm 378 W/m2
11:00 61.9 °F /  16.6 °C 57.7 °F /  14.3 °C 29.83in /  1010hPa SW 2mph /  3.2km/h 6mph /  9.7km/h 86% 0.00in /  0mm 405 W/m2
11:10 62.4 °F /  16.9 °C 57.5 °F /  14.2 °C 29.83in /  1010hPa SW 3mph /  4.8km/h 6mph /  9.7km/h 84% 0.00in /  0mm 274 W/m2
11:20 62.4 °F /  16.9 °C 57.8 °F /  14.3 °C 29.83in /  1010hPa WSW 2mph /  3.2km/h 6mph /  9.7km/h 85% 0.00in /  0mm 202 W/m2
11:30 62.4 °F /  16.9 °C 57.5 °F /  14.2 °C 29.83in /  1010hPa WNW 2mph /  3.2km/h 6mph /  9.7km/h 84% 0.00in /  0mm 183 W/m2
11:40 62.6 °F /  17 °C 57.7 °F /  14.3 °C 29.83in /  1010hPa WSW 2mph /  3.2km/h 7mph /  11.3km/h 84% 0.00in /  0mm 177 W/m2
11:50 62.6 °F /  17 °C 57.7 °F /  14.3 °C 29.83in /  1010hPa WSW 3mph /  4.8km/h 5mph /  8km/h 84% 0.00in /  0mm 92 W/m2
12:00 62.4 °F /  16.9 °C 57.2 °F /  14 °C 29.83in /  1010hPa WSW 5mph /  8km/h 7mph /  11.3km/h 83% 0.00in /  0mm 58 W/m2
12:10 62.1 °F /  16.7 °C 56.8 °F /  13.8 °C 29.84in /  1010.4hPa SW 3mph /  4.8km/h 6mph /  9.7km/h 83% 0.00in /  0mm 103 W/m2
12:20 61.9 °F /  16.6 °C 57.3 °F /  14.1 °C 29.83in /  1010hPa SW 2mph /  3.2km/h 8mph /  12.9km/h 85% 0.01in /  0.25mm 244 W/m2
12:30 62.1 °F /  16.7 °C 58.8 °F /  14.9 °C 29.83in /  1010hPa SSW 2mph /  3.2km/h 5mph /  8km/h 89% 0.00in /  0mm 291 W/m2
12:40 62.2 °F /  16.8 °C 58.6 °F /  14.8 °C 29.83in /  1010hPa SW 2mph /  3.2km/h 5mph /  8km/h 88% 0.00in /  0mm 289 W/m2
12:50 62.4 °F /  16.9 °C 58.8 °F /  14.9 °C 29.82in /  1009.7hPa SW 2mph /  3.2km/h 5mph /  8km/h 88% 0.00in /  0mm 291 W/m2
Knjazevac, Serbia
Compliments of Weather Underground - 2 mb